createdAt,value
2023-04-08T00:01:02.638Z,37.83
2023-04-08T00:03:32.669Z,36.05
2023-04-08T00:06:03.351Z,35.88
2023-04-08T00:08:32.902Z,41.17
2023-04-08T00:11:02.060Z,40.17
2023-04-08T00:13:31.204Z,40.80
2023-04-08T00:16:01.436Z,39.08
2023-04-08T00:18:30.319Z,35.05
2023-04-08T00:21:01.888Z,43.35
2023-04-08T00:23:30.781Z,41.00
2023-04-08T00:25:59.696Z,36.00
2023-04-08T00:28:28.556Z,37.92
2023-04-08T00:30:57.544Z,35.25
2023-04-08T00:33:28.009Z,38.17
2023-04-08T00:36:00.598Z,38.97
2023-04-08T00:38:29.961Z,36.85
2023-04-08T00:40:58.683Z,38.00
2023-04-08T00:43:30.625Z,35.75
2023-04-08T00:45:59.375Z,36.70
2023-04-08T00:48:29.312Z,36.20
2023-04-08T00:50:58.904Z,35.50
2023-04-08T00:53:27.778Z,35.17
2023-04-08T00:55:56.251Z,33.95
2023-04-08T00:58:25.318Z,35.03
2023-04-08T01:01:00.679Z,36.30
2023-04-08T01:03:43.121Z,37.90
2023-04-08T01:06:17.325Z,35.97
2023-04-08T01:08:47.390Z,35.42
2023-04-08T01:11:17.259Z,35.42
2023-04-08T01:13:47.935Z,34.05
2023-04-08T01:16:18.788Z,36.90
2023-04-08T01:18:51.062Z,33.97
2023-04-08T01:21:23.344Z,35.80
2023-04-08T01:24:03.183Z,35.28
2023-04-08T01:26:33.692Z,35.30
2023-04-08T01:29:04.003Z,33.58
2023-04-08T01:31:33.970Z,35.83
2023-04-08T01:34:06.964Z,34.00
2023-04-08T01:36:37.110Z,34.25
2023-04-08T01:39:09.902Z,35.20
2023-04-08T01:41:40.798Z,32.55
2023-04-08T01:44:10.955Z,36.00
2023-04-08T01:46:43.056Z,36.45
2023-04-08T01:49:12.925Z,31.25
2023-04-08T01:51:42.918Z,31.52
2023-04-08T01:54:12.003Z,30.67
2023-04-08T01:56:47.584Z,33.63
2023-04-08T01:59:18.932Z,28.15
2023-04-08T02:01:49.523Z,31.10
2023-04-08T02:04:20.787Z,31.67
2023-04-08T02:06:49.851Z,31.75
2023-04-08T02:09:18.659Z,31.33
2023-04-08T02:11:51.907Z,30.50
2023-04-08T02:14:21.142Z,29.92
2023-04-08T02:16:54.964Z,27.73
2023-04-08T02:19:30.920Z,25.80
2023-04-08T02:22:13.658Z,29.60
2023-04-08T02:24:44.456Z,28.38
2023-04-08T02:27:14.922Z,25.05
2023-04-08T02:29:44.636Z,28.58
2023-04-08T02:32:13.903Z,28.13
2023-04-08T02:34:44.654Z,27.63
2023-04-08T02:37:13.991Z,30.90
2023-04-08T02:39:42.435Z,27.48
2023-04-08T02:42:12.069Z,29.73
2023-04-08T02:44:42.096Z,28.70
2023-04-08T02:47:10.684Z,25.38
2023-04-08T02:49:39.615Z,27.98
2023-04-08T02:52:08.583Z,27.63
2023-04-08T02:54:37.568Z,26.73
2023-04-08T02:57:06.333Z,26.40
2023-04-08T02:59:39.156Z,26.33
2023-04-08T03:02:09.660Z,26.55
2023-04-08T03:04:38.428Z,23.27
2023-04-08T03:07:08.683Z,25.60
2023-04-08T03:09:37.907Z,26.60
2023-04-08T03:12:07.077Z,24.40
2023-04-08T03:14:36.018Z,24.80
2023-04-08T03:17:04.752Z,28.02
2023-04-08T03:19:35.429Z,24.85
2023-04-08T03:22:04.584Z,27.52
2023-04-08T03:24:33.474Z,29.27
2023-04-08T03:27:02.046Z,26.42
2023-04-08T03:29:30.746Z,29.77
2023-04-08T03:32:00.099Z,27.80
2023-04-08T03:34:28.977Z,25.10
2023-04-08T03:36:59.794Z,26.38
2023-04-08T03:39:28.410Z,25.20
2023-04-08T03:41:58.221Z,25.08
2023-04-08T03:44:27.191Z,27.05
2023-04-08T03:46:55.699Z,24.38
2023-04-08T03:49:24.235Z,27.98
2023-04-08T03:51:53.089Z,25.77
2023-04-08T03:54:23.168Z,29.40
2023-04-08T03:56:51.786Z,27.42
2023-04-08T03:59:20.466Z,29.85
2023-04-08T04:01:51.492Z,25.80
2023-04-08T04:04:19.973Z,28.55
2023-04-08T04:06:48.740Z,25.73
2023-04-08T04:09:18.939Z,27.25
2023-04-08T04:11:52.217Z,25.38
2023-04-08T04:14:20.904Z,29.48
2023-04-08T04:16:49.614Z,25.25
2023-04-08T04:19:18.947Z,29.92
2023-04-08T04:21:47.778Z,27.20
2023-04-08T04:24:16.363Z,29.77
2023-04-08T04:26:44.751Z,29.10
2023-04-08T04:29:14.938Z,27.85
2023-04-08T04:31:43.521Z,27.42
2023-04-08T04:34:12.275Z,26.33
2023-04-08T04:36:43.557Z,28.40
2023-04-08T04:39:15.747Z,29.20
2023-04-08T04:41:44.844Z,27.80
2023-04-08T04:44:14.954Z,29.92
2023-04-08T04:46:43.828Z,24.88
2023-04-08T04:49:12.401Z,25.58
2023-04-08T04:51:41.676Z,27.83
2023-04-08T04:54:10.094Z,28.35
2023-04-08T04:56:38.567Z,24.88
2023-04-08T04:59:08.669Z,31.10
2023-04-08T05:01:41.243Z,28.30
2023-04-08T05:04:09.708Z,24.95
2023-04-08T05:06:38.304Z,28.55
2023-04-08T05:09:07.232Z,25.95
2023-04-08T05:11:36.414Z,26.27
2023-04-08T05:14:05.214Z,25.27
2023-04-08T05:16:33.655Z,29.00
2023-04-08T05:19:06.166Z,24.23
2023-04-08T05:21:34.602Z,25.95
2023-04-08T05:24:03.691Z,27.15
2023-04-08T05:26:33.063Z,28.13
2023-04-08T05:29:01.688Z,27.73
2023-04-08T05:31:30.697Z,25.70
2023-04-08T05:33:58.976Z,27.52
2023-04-08T05:36:29.540Z,28.55
2023-04-08T05:38:59.287Z,27.95
2023-04-08T05:41:29.515Z,25.63
2023-04-08T05:44:00.821Z,24.20
2023-04-08T05:46:29.742Z,25.50
2023-04-08T05:48:58.274Z,26.45
2023-04-08T05:51:26.671Z,26.55
2023-04-08T05:53:57.073Z,23.15
2023-04-08T05:56:25.690Z,22.35
2023-04-08T05:58:55.861Z,23.85
2023-04-08T06:01:25.638Z,24.25
2023-04-08T06:03:56.361Z,26.20
2023-04-08T06:06:26.188Z,25.35
2023-04-08T06:09:00.231Z,22.73
2023-04-08T06:11:29.027Z,22.02
2023-04-08T06:13:59.015Z,26.85
2023-04-08T06:16:27.433Z,23.17
2023-04-08T06:18:56.353Z,24.52
2023-04-08T06:21:25.529Z,22.02
2023-04-08T06:23:53.959Z,19.65
2023-04-08T06:26:24.562Z,23.50
2023-04-08T06:28:53.418Z,23.25
2023-04-08T06:31:22.197Z,19.80
2023-04-08T06:33:52.561Z,21.73
2023-04-08T06:36:22.192Z,19.30
2023-04-08T06:38:51.426Z,21.75
2023-04-08T06:41:20.492Z,20.55
2023-04-08T06:43:54.148Z,18.55
2023-04-08T06:46:23.035Z,17.00
2023-04-08T06:48:52.872Z,18.25
2023-04-08T06:51:21.772Z,17.27
2023-04-08T06:53:50.646Z,20.42
2023-04-08T06:56:21.427Z,16.08
2023-04-08T06:58:52.103Z,16.00
2023-04-08T07:01:21.340Z,14.40
2023-04-08T07:03:49.998Z,13.45
2023-04-08T07:06:18.923Z,14.20
2023-04-08T07:08:47.774Z,14.55
2023-04-08T07:11:16.408Z,13.55
2023-04-08T07:13:47.970Z,12.32
2023-04-08T07:16:18.179Z,12.73
2023-04-08T07:18:50.480Z,14.25
2023-04-08T07:21:20.155Z,13.60
2023-04-08T07:23:48.856Z,14.85
2023-04-08T07:26:18.757Z,14.93
2023-04-08T07:28:47.572Z,14.43
2023-04-08T07:31:19.578Z,13.90
2023-04-08T07:33:48.240Z,14.48
2023-04-08T07:36:18.629Z,12.68
2023-04-08T07:38:47.861Z,13.60
2023-04-08T07:41:16.947Z,11.93
2023-04-08T07:43:46.157Z,12.35
2023-04-08T07:46:14.902Z,12.48
2023-04-08T07:48:45.429Z,12.95
2023-04-08T07:51:15.322Z,11.85
2023-04-08T07:53:50.148Z,12.60
2023-04-08T07:56:22.575Z,13.02
2023-04-08T07:58:53.621Z,12.10
2023-04-08T08:01:25.189Z,10.10
2023-04-08T08:03:55.921Z,10.02
2023-04-08T08:06:24.794Z,9.63
2023-04-08T08:08:53.503Z,9.90
2023-04-08T08:11:22.581Z,9.88
2023-04-08T08:13:52.226Z,10.63
2023-04-08T08:16:21.416Z,10.77
2023-04-08T08:18:49.972Z,10.52
2023-04-08T08:21:21.726Z,12.55
2023-04-08T08:23:51.205Z,10.50
2023-04-08T08:26:20.120Z,11.35
2023-04-08T08:28:48.941Z,10.40
2023-04-08T08:31:18.091Z,10.85
2023-04-08T08:33:46.818Z,10.50
2023-04-08T08:36:15.711Z,10.52
2023-04-08T08:38:45.974Z,11.23
2023-04-08T08:41:15.506Z,11.40
2023-04-08T08:43:45.204Z,11.77
2023-04-08T08:46:13.604Z,10.05
2023-04-08T08:48:42.312Z,9.98
2023-04-08T08:51:11.995Z,11.55
2023-04-08T08:53:45.317Z,10.75
2023-04-08T08:56:18.674Z,9.45
2023-04-08T08:58:49.273Z,9.73
2023-04-08T09:01:34.863Z,11.27
2023-04-08T09:04:17.449Z,9.50
2023-04-08T09:06:50.328Z,9.13
2023-04-08T09:09:20.733Z,8.52
2023-04-08T09:12:04.056Z,8.93
2023-04-08T09:14:35.054Z,8.40
2023-04-08T09:17:03.902Z,7.93
2023-04-08T09:19:32.735Z,8.90
2023-04-08T09:22:08.241Z,10.45
2023-04-08T09:24:37.487Z,8.45
2023-04-08T09:27:08.082Z,8.85
2023-04-08T09:29:39.281Z,10.73
2023-04-08T09:32:09.172Z,9.43
2023-04-08T09:34:38.071Z,8.80
2023-04-08T09:37:07.414Z,8.63
2023-04-08T09:39:36.358Z,9.68
2023-04-08T09:42:13.450Z,10.55
2023-04-08T09:44:46.251Z,10.32
2023-04-08T09:47:20.945Z,10.18
2023-04-08T09:49:56.524Z,8.82
2023-04-08T09:52:30.640Z,9.85
2023-04-08T09:55:03.908Z,9.25
2023-04-08T09:57:45.233Z,8.07
2023-04-08T10:00:17.737Z,9.07
2023-04-08T10:02:57.310Z,9.55
2023-04-08T10:05:26.970Z,8.27
2023-04-08T10:07:57.830Z,8.45
2023-04-08T10:10:27.571Z,9.13
2023-04-08T10:12:57.646Z,9.25
2023-04-08T10:15:28.355Z,7.70
2023-04-08T10:17:58.403Z,7.00
2023-04-08T10:20:47.447Z,11.45
2023-04-08T10:23:17.549Z,11.27
2023-04-08T10:25:48.323Z,8.13
2023-04-08T10:28:28.885Z,8.05
2023-04-08T10:30:58.374Z,7.72
2023-04-08T10:33:34.828Z,9.95
2023-04-08T10:36:11.387Z,9.55
2023-04-08T10:38:43.567Z,9.10
2023-04-08T10:41:12.055Z,9.18
2023-04-08T10:43:42.676Z,7.93
2023-04-08T10:46:25.952Z,8.43
2023-04-08T10:49:01.647Z,9.07
2023-04-08T10:51:33.689Z,9.63
2023-04-08T10:54:07.783Z,8.48
2023-04-08T10:56:37.916Z,7.88
2023-04-08T10:59:08.698Z,9.48
2023-04-08T11:01:42.685Z,8.55
2023-04-08T11:04:18.889Z,8.20
2023-04-08T11:06:48.655Z,8.73
2023-04-08T11:09:18.023Z,7.72
2023-04-08T11:11:48.017Z,8.60
2023-04-08T11:14:19.833Z,8.15
2023-04-08T11:16:51.493Z,8.60
2023-04-08T11:19:21.600Z,9.48
2023-04-08T11:21:52.720Z,9.32
2023-04-08T11:24:22.486Z,9.00
2023-04-08T11:26:51.170Z,7.85
2023-04-08T11:29:22.465Z,8.35
2023-04-08T11:31:51.518Z,8.27
2023-04-08T11:34:23.907Z,8.60
2023-04-08T11:36:53.496Z,6.78
2023-04-08T11:39:24.495Z,7.70
2023-04-08T11:41:53.394Z,9.48
2023-04-08T11:44:31.889Z,8.32
2023-04-08T11:47:04.436Z,8.63
2023-04-08T11:49:45.883Z,11.35
2023-04-08T11:52:14.656Z,10.20
2023-04-08T11:54:43.925Z,9.95
2023-04-08T11:57:12.623Z,7.90
2023-04-08T11:59:43.699Z,8.30
2023-04-08T12:02:13.733Z,8.65
2023-04-08T12:04:42.926Z,7.85
2023-04-08T12:07:11.977Z,8.75
2023-04-08T12:09:40.924Z,8.30
2023-04-08T12:12:09.875Z,8.63
2023-04-08T12:14:38.257Z,8.05
2023-04-08T12:17:07.995Z,7.75
2023-04-08T12:19:39.598Z,8.43
2023-04-08T12:22:08.433Z,8.20
2023-04-08T12:24:37.361Z,7.70
2023-04-08T12:27:06.007Z,7.65
2023-04-08T12:29:35.074Z,7.93
2023-04-08T12:32:04.727Z,8.27
2023-04-08T12:34:37.948Z,7.45
2023-04-08T12:37:06.797Z,8.75
2023-04-08T12:39:35.322Z,11.07
2023-04-08T12:42:06.508Z,9.23
2023-04-08T12:44:35.575Z,11.05
2023-04-08T12:47:04.365Z,9.35
2023-04-08T12:49:39.593Z,9.45
2023-04-08T12:52:18.904Z,10.40
2023-04-08T12:54:50.416Z,9.43
2023-04-08T12:57:20.340Z,8.80
2023-04-08T12:59:49.006Z,10.38
2023-04-08T13:02:20.742Z,10.85
2023-04-08T13:04:49.998Z,9.63
2023-04-08T13:07:20.660Z,10.18
2023-04-08T13:09:49.142Z,12.25
2023-04-08T13:12:18.215Z,9.43
2023-04-08T13:14:47.843Z,9.95
2023-04-08T13:17:16.520Z,10.38
2023-04-08T13:19:45.394Z,9.70
2023-04-08T13:22:14.336Z,9.15
2023-04-08T13:24:44.708Z,10.52
2023-04-08T13:27:13.252Z,9.35
2023-04-08T13:29:42.152Z,9.45
2023-04-08T13:32:12.352Z,9.73
2023-04-08T13:34:42.538Z,11.55
2023-04-08T13:37:11.506Z,9.40
2023-04-08T13:39:39.963Z,9.75
2023-04-08T13:42:11.123Z,9.38
2023-04-08T13:44:40.264Z,7.97
2023-04-08T13:47:09.307Z,8.90
2023-04-08T13:49:38.032Z,9.45
2023-04-08T13:52:07.339Z,11.02
2023-04-08T13:54:37.357Z,9.65
2023-04-08T13:57:06.115Z,10.52
2023-04-08T13:59:35.924Z,9.60
2023-04-08T14:02:05.207Z,11.50
2023-04-08T14:04:34.580Z,9.40
2023-04-08T14:07:03.405Z,8.45
2023-04-08T14:09:35.876Z,10.32
2023-04-08T14:12:04.483Z,10.73
2023-04-08T14:14:33.309Z,10.73
2023-04-08T14:17:04.376Z,12.48
2023-04-08T14:19:33.381Z,11.50
2023-04-08T14:22:02.209Z,10.35
2023-04-08T14:24:30.834Z,9.55
2023-04-08T14:27:00.114Z,9.57
2023-04-08T14:29:28.861Z,8.65
2023-04-08T14:31:57.177Z,9.32
2023-04-08T14:34:27.781Z,9.13
2023-04-08T14:36:56.604Z,7.68
2023-04-08T14:39:25.500Z,9.30
2023-04-08T14:41:54.607Z,10.07
2023-04-08T14:44:23.424Z,9.25
2023-04-08T14:46:52.222Z,11.55
2023-04-08T14:49:20.903Z,9.68
2023-04-08T14:51:53.239Z,9.90
2023-04-08T14:54:22.188Z,10.60
2023-04-08T14:56:51.037Z,9.88
2023-04-08T14:59:19.359Z,11.10
2023-04-08T15:01:48.542Z,10.18
2023-04-08T15:04:17.299Z,8.68
2023-04-08T15:06:46.177Z,8.07
2023-04-08T15:09:16.808Z,8.50
2023-04-08T15:11:45.873Z,8.10
2023-04-08T15:14:15.105Z,7.80
2023-04-08T15:16:43.783Z,7.97
2023-04-08T15:19:12.614Z,9.07
2023-04-08T15:21:41.417Z,8.35
2023-04-08T15:24:10.314Z,8.35
2023-04-08T15:26:41.239Z,11.40
2023-04-08T15:29:10.490Z,11.30
2023-04-08T15:31:39.298Z,16.55
2023-04-08T15:34:08.276Z,14.48
2023-04-08T15:36:37.810Z,25.20
2023-04-08T15:39:06.652Z,20.15
2023-04-08T15:41:35.407Z,18.05
2023-04-08T15:44:06.560Z,17.33
2023-04-08T15:46:37.277Z,19.08
2023-04-08T15:49:06.419Z,19.75
2023-04-08T15:51:35.362Z,13.93
2023-04-08T15:54:04.063Z,20.48
2023-04-08T15:56:33.782Z,17.83
2023-04-08T15:59:03.067Z,15.95
2023-04-08T16:01:33.788Z,20.13
2023-04-08T16:04:02.793Z,23.23
2023-04-08T16:06:31.652Z,22.13
2023-04-08T16:09:00.216Z,19.85
2023-04-08T16:11:29.800Z,21.17
2023-04-08T16:13:58.290Z,29.15
2023-04-08T16:16:27.180Z,18.77
2023-04-08T16:18:57.208Z,20.75
2023-04-08T16:21:26.062Z,19.05
2023-04-08T16:23:54.557Z,19.88
2023-04-08T16:26:24.281Z,20.80
2023-04-08T16:28:53.014Z,21.35
2023-04-08T16:31:22.563Z,18.58
2023-04-08T16:33:51.997Z,21.88
2023-04-08T16:36:22.367Z,19.23
2023-04-08T16:38:51.379Z,23.17
2023-04-08T16:41:20.352Z,23.20
2023-04-08T16:43:49.452Z,35.63
2023-04-08T16:46:18.836Z,33.03
2023-04-08T16:48:48.467Z,16.90
2023-04-08T16:51:17.670Z,16.55
2023-04-08T16:53:48.124Z,19.80
2023-04-08T16:56:17.098Z,14.98
2023-04-08T16:58:46.337Z,14.85
2023-04-08T17:01:15.186Z,15.57
2023-04-08T17:03:44.448Z,18.92
2023-04-08T17:06:17.388Z,18.95
2023-04-08T17:08:47.714Z,25.95
2023-04-08T17:11:16.649Z,33.13
2023-04-08T17:13:46.322Z,24.00
2023-04-08T17:16:17.979Z,26.55
2023-04-08T17:18:46.970Z,30.95
2023-04-08T17:21:15.769Z,25.85
2023-04-08T17:23:44.672Z,28.27
2023-04-08T17:26:15.516Z,25.55
2023-04-08T17:28:43.925Z,29.30
2023-04-08T17:31:15.778Z,24.17
2023-04-08T17:33:44.574Z,20.25
2023-04-08T17:36:13.415Z,26.75
2023-04-08T17:38:42.073Z,24.88
2023-04-08T17:41:13.419Z,32.20
2023-04-08T17:43:45.752Z,23.50
2023-04-08T17:46:14.646Z,35.85
2023-04-08T17:48:43.470Z,56.00
2023-04-08T17:51:12.357Z,36.50
2023-04-08T17:53:40.726Z,22.77
2023-04-08T17:56:09.412Z,21.60
2023-04-08T17:58:37.989Z,22.38
2023-04-08T18:01:08.689Z,19.13
2023-04-08T18:03:37.515Z,20.05
2023-04-08T18:06:08.741Z,19.02
2023-04-08T18:08:38.962Z,19.25
2023-04-08T18:11:08.164Z,18.13
2023-04-08T18:13:36.709Z,20.20
2023-04-08T18:16:05.720Z,16.92
2023-04-08T18:18:38.446Z,16.65
2023-04-08T18:21:07.495Z,16.95
2023-04-08T18:23:37.611Z,27.00
2023-04-08T18:26:07.759Z,27.08
2023-04-08T18:28:36.546Z,26.48
2023-04-08T18:31:05.354Z,26.83
2023-04-08T18:33:36.451Z,26.08
2023-04-08T18:36:09.145Z,23.63
2023-04-08T18:38:40.073Z,23.92
2023-04-08T18:41:10.634Z,21.98
2023-04-08T18:43:39.094Z,22.73
2023-04-08T18:46:07.622Z,25.65
2023-04-08T18:48:37.828Z,21.65
2023-04-08T18:51:08.002Z,24.65
2023-04-08T18:53:37.415Z,28.38
2023-04-08T18:56:06.075Z,28.92
2023-04-08T18:58:34.680Z,22.80
2023-04-08T19:01:08.102Z,25.75
2023-04-08T19:03:38.877Z,24.13
2023-04-08T19:06:07.865Z,26.05
2023-04-08T19:08:36.690Z,27.85
2023-04-08T19:11:07.416Z,23.88
2023-04-08T19:13:36.195Z,28.45
2023-04-08T19:16:08.863Z,27.90
2023-04-08T19:18:39.281Z,28.10
2023-04-08T19:21:08.082Z,28.13
2023-04-08T19:23:37.124Z,27.08
2023-04-08T19:26:06.538Z,30.15
2023-04-08T19:28:35.177Z,31.58
2023-04-08T19:31:04.404Z,31.35
2023-04-08T19:33:32.951Z,33.40
2023-04-08T19:36:03.389Z,33.90
2023-04-08T19:38:32.357Z,36.00
2023-04-08T19:41:02.496Z,36.45
2023-04-08T19:43:31.546Z,38.38
2023-04-08T19:46:00.155Z,43.17
2023-04-08T19:48:28.927Z,47.60
2023-04-08T19:50:57.543Z,44.70
2023-04-08T19:53:27.845Z,46.53
2023-04-08T19:56:01.370Z,48.72
2023-04-08T19:58:30.022Z,54.35
2023-04-08T20:00:58.798Z,53.63
2023-04-08T20:03:27.936Z,47.97
2023-04-08T20:05:57.651Z,46.42
2023-04-08T20:08:27.918Z,43.83
2023-04-08T20:10:56.774Z,47.55
2023-04-08T20:13:26.164Z,42.28
2023-04-08T20:15:54.583Z,46.65
2023-04-08T20:18:23.037Z,44.75
2023-04-08T20:20:51.681Z,42.25
2023-04-08T20:23:20.988Z,42.60
2023-04-08T20:25:51.017Z,72.15
2023-04-08T20:28:19.530Z,38.13
2023-04-08T20:30:54.633Z,34.63
2023-04-08T20:33:23.884Z,33.88
2023-04-08T20:35:53.413Z,33.83
2023-04-08T20:38:23.303Z,32.83
2023-04-08T20:40:54.064Z,32.03
2023-04-08T20:43:22.849Z,32.60
2023-04-08T20:45:51.301Z,32.53
2023-04-08T20:48:20.540Z,29.63
2023-04-08T20:50:50.175Z,31.02
2023-04-08T20:53:19.782Z,29.73
2023-04-08T20:55:48.578Z,30.67
2023-04-08T20:58:19.001Z,28.88
2023-04-08T21:00:48.024Z,27.77
2023-04-08T21:03:17.315Z,30.20
2023-04-08T21:05:46.752Z,29.80
2023-04-08T21:08:15.618Z,30.70
2023-04-08T21:10:44.105Z,32.30
2023-04-08T21:13:13.097Z,36.25
2023-04-08T21:15:43.364Z,34.80
2023-04-08T21:18:11.902Z,34.35
2023-04-08T21:20:41.411Z,37.13
2023-04-08T21:23:10.505Z,34.45
2023-04-08T21:25:39.007Z,34.00
2023-04-08T21:28:08.145Z,35.15
2023-04-08T21:30:37.066Z,35.47
2023-04-08T21:33:07.563Z,31.88
2023-04-08T21:35:36.539Z,28.40
2023-04-08T21:38:05.161Z,23.10
2023-04-08T21:40:34.230Z,26.40
2023-04-08T21:43:03.116Z,29.25
2023-04-08T21:45:31.506Z,25.75
2023-04-08T21:48:00.296Z,27.23
2023-04-08T21:50:32.553Z,30.27
2023-04-08T21:53:01.332Z,26.58
2023-04-08T21:55:30.546Z,28.00
2023-04-08T21:57:59.404Z,29.85
2023-04-08T22:00:28.206Z,23.80
2023-04-08T22:02:56.764Z,25.30
2023-04-08T22:05:25.231Z,21.38
2023-04-08T22:07:55.380Z,20.08
2023-04-08T22:10:24.091Z,24.05
2023-04-08T22:12:52.646Z,21.60
2023-04-08T22:15:22.302Z,24.15
2023-04-08T22:17:51.062Z,18.88
2023-04-08T22:20:19.989Z,21.27
2023-04-08T22:22:48.701Z,15.75
2023-04-08T22:25:18.939Z,21.85
2023-04-08T22:27:47.540Z,21.77
2023-04-08T22:30:16.433Z,21.70
2023-04-08T22:32:45.083Z,21.17
2023-04-08T22:35:13.626Z,24.33
2023-04-08T22:37:42.524Z,20.77
2023-04-08T22:40:11.614Z,22.42
2023-04-08T22:42:41.366Z,26.10
2023-04-08T22:45:10.526Z,20.85
2023-04-08T22:47:39.110Z,25.02
2023-04-08T22:50:09.204Z,26.50
2023-04-08T22:52:37.793Z,23.50
2023-04-08T22:55:07.438Z,26.75
2023-04-08T22:57:36.266Z,32.08
2023-04-08T23:00:07.720Z,31.38
2023-04-08T23:02:37.695Z,37.03
2023-04-08T23:05:07.065Z,30.25
2023-04-08T23:07:35.887Z,28.92
2023-04-08T23:10:04.857Z,28.33
2023-04-08T23:12:33.938Z,27.88
2023-04-08T23:15:03.878Z,37.35
2023-04-08T23:17:33.737Z,29.83
2023-04-08T23:20:02.860Z,29.02
2023-04-08T23:22:31.873Z,27.27
2023-04-08T23:25:00.270Z,27.58
2023-04-08T23:27:30.177Z,35.95
2023-04-08T23:30:05.511Z,29.05
2023-04-08T23:32:36.476Z,27.35
2023-04-08T23:35:05.473Z,30.23
2023-04-08T23:37:34.034Z,32.45
2023-04-08T23:40:03.012Z,28.05
2023-04-08T23:42:31.649Z,27.60
2023-04-08T23:45:00.072Z,28.95
2023-04-08T23:47:29.089Z,27.67
2023-04-08T23:50:00.012Z,27.98
2023-04-08T23:52:28.961Z,25.85
2023-04-08T23:54:58.401Z,21.42
2023-04-08T23:57:27.200Z,23.35
2023-04-08T23:59:55.783Z,22.67
